sensor_id;sensor_type;location;lat;lon;timestamp;pressure;altitude;pressure_sealevel;temperature;humidity
38530;BME280;24301;54.332;48.386;2023-06-14T00:02:12;99298.31;;;15.79;39.02
38530;BME280;24301;54.332;48.386;2023-06-14T00:04:38;99308.97;;;15.76;39.25
38530;BME280;24301;54.332;48.386;2023-06-14T00:07:05;99306.50;;;15.72;39.03
38530;BME280;24301;54.332;48.386;2023-06-14T00:09:33;99297.03;;;15.63;38.70
38530;BME280;24301;54.332;48.386;2023-06-14T00:11:59;99291.75;;;15.63;39.41
38530;BME280;24301;54.332;48.386;2023-06-14T00:14:24;99289.22;;;15.58;38.48
38530;BME280;24301;54.332;48.386;2023-06-14T00:16:50;99293.47;;;15.64;39.21
38530;BME280;24301;54.332;48.386;2023-06-14T00:19:17;99280.16;;;15.65;39.47
38530;BME280;24301;54.332;48.386;2023-06-14T00:21:43;99282.88;;;15.64;40.61
38530;BME280;24301;54.332;48.386;2023-06-14T00:24:09;99282.97;;;15.61;40.24
38530;BME280;24301;54.332;48.386;2023-06-14T00:26:34;99287.47;;;15.57;39.08
38530;BME280;24301;54.332;48.386;2023-06-14T00:29:00;99286.66;;;15.55;40.93
38530;BME280;24301;54.332;48.386;2023-06-14T00:31:26;99297.50;;;15.47;43.77
38530;BME280;24301;54.332;48.386;2023-06-14T00:33:53;99301.25;;;15.40;45.01
38530;BME280;24301;54.332;48.386;2023-06-14T00:36:18;99294.41;;;15.31;44.78
38530;BME280;24301;54.332;48.386;2023-06-14T00:38:44;99290.00;;;15.32;44.24
38530;BME280;24301;54.332;48.386;2023-06-14T00:41:10;99291.88;;;15.28;44.20
38530;BME280;24301;54.332;48.386;2023-06-14T00:43:35;99295.34;;;15.30;44.12
38530;BME280;24301;54.332;48.386;2023-06-14T00:46:01;99287.50;;;15.27;43.74
38530;BME280;24301;54.332;48.386;2023-06-14T00:48:27;99293.72;;;15.25;43.34
38530;BME280;24301;54.332;48.386;2023-06-14T00:50:53;99295.44;;;15.27;44.58
38530;BME280;24301;54.332;48.386;2023-06-14T00:53:19;99286.66;;;15.25;44.59
38530;BME280;24301;54.332;48.386;2023-06-14T00:55:48;99286.06;;;15.15;45.37
38530;BME280;24301;54.332;48.386;2023-06-14T00:58:15;99280.16;;;15.05;46.13
38530;BME280;24301;54.332;48.386;2023-06-14T01:00:41;99280.28;;;15.01;46.31
38530;BME280;24301;54.332;48.386;2023-06-14T01:15:30;99296.91;;;14.73;51.32
38530;BME280;24301;54.332;48.386;2023-06-14T01:17:56;99280.22;;;14.69;51.66
38530;BME280;24301;54.332;48.386;2023-06-14T01:20:29;99268.88;;;14.64;53.14
38530;BME280;24301;54.332;48.386;2023-06-14T01:22:54;99277.91;;;14.57;53.77
38530;BME280;24301;54.332;48.386;2023-06-14T01:25:20;99258.56;;;14.55;53.22
38530;BME280;24301;54.332;48.386;2023-06-14T01:27:58;99282.34;;;14.56;53.31
38530;BME280;24301;54.332;48.386;2023-06-14T01:30:25;99274.44;;;14.55;50.90
38530;BME280;24301;54.332;48.386;2023-06-14T01:32:51;99273.59;;;14.52;50.16
38530;BME280;24301;54.332;48.386;2023-06-14T01:35:18;99264.84;;;14.50;50.32
38530;BME280;24301;54.332;48.386;2023-06-14T01:37:43;99261.41;;;14.47;49.71
38530;BME280;24301;54.332;48.386;2023-06-14T01:40:11;99280.91;;;14.43;48.83
38530;BME280;24301;54.332;48.386;2023-06-14T01:42:38;99269.34;;;14.47;47.87
38530;BME280;24301;54.332;48.386;2023-06-14T01:45:04;99267.56;;;14.47;45.78
38530;BME280;24301;54.332;48.386;2023-06-14T01:47:31;99257.75;;;14.51;46.40
38530;BME280;24301;54.332;48.386;2023-06-14T01:49:57;99253.34;;;14.53;46.65
38530;BME280;24301;54.332;48.386;2023-06-14T01:52:23;99255.91;;;14.55;47.29
38530;BME280;24301;54.332;48.386;2023-06-14T01:54:50;99257.72;;;14.54;47.68
38530;BME280;24301;54.332;48.386;2023-06-14T01:57:15;99266.38;;;14.59;47.11
38530;BME280;24301;54.332;48.386;2023-06-14T01:59:41;99257.53;;;14.60;46.49
38530;BME280;24301;54.332;48.386;2023-06-14T02:02:08;99267.09;;;14.66;47.46
38530;BME280;24301;54.332;48.386;2023-06-14T02:04:33;99265.16;;;14.73;49.03
38530;BME280;24301;54.332;48.386;2023-06-14T02:06:59;99276.44;;;14.81;48.44
38530;BME280;24301;54.332;48.386;2023-06-14T02:09:25;99269.09;;;14.91;49.17
38530;BME280;24301;54.332;48.386;2023-06-14T02:11:53;99274.25;;;14.96;48.12
38530;BME280;24301;54.332;48.386;2023-06-14T02:14:20;99266.28;;;14.97;48.50
38530;BME280;24301;54.332;48.386;2023-06-14T02:16:45;99268.19;;;14.92;48.70
38530;BME280;24301;54.332;48.386;2023-06-14T02:19:17;99272.50;;;14.94;48.15
38530;BME280;24301;54.332;48.386;2023-06-14T02:21:43;99265.22;;;15.03;47.73
38530;BME280;24301;54.332;48.386;2023-06-14T02:24:11;99264.16;;;15.10;46.33
38530;BME280;24301;54.332;48.386;2023-06-14T02:26:37;99272.81;;;15.15;46.48
38530;BME280;24301;54.332;48.386;2023-06-14T02:29:11;99271.81;;;15.19;46.13
38530;BME280;24301;54.332;48.386;2023-06-14T02:31:40;99275.28;;;15.21;45.35
38530;BME280;24301;54.332;48.386;2023-06-14T02:34:06;99269.13;;;15.21;45.41
38530;BME280;24301;54.332;48.386;2023-06-14T02:36:34;99270.72;;;15.27;45.80
38530;BME280;24301;54.332;48.386;2023-06-14T02:39:00;99271.38;;;15.35;45.50
38530;BME280;24301;54.332;48.386;2023-06-14T02:41:26;99267.72;;;15.39;45.57
38530;BME280;24301;54.332;48.386;2023-06-14T02:43:52;99271.28;;;15.38;45.40
38530;BME280;24301;54.332;48.386;2023-06-14T02:46:18;99260.69;;;15.38;45.45
38530;BME280;24301;54.332;48.386;2023-06-14T02:48:43;99262.53;;;15.36;45.61
38530;BME280;24301;54.332;48.386;2023-06-14T02:51:09;99270.59;;;15.31;45.78
38530;BME280;24301;54.332;48.386;2023-06-14T02:53:35;99254.09;;;15.21;45.13
38530;BME280;24301;54.332;48.386;2023-06-14T02:56:02;99261.09;;;15.24;45.44
38530;BME280;24301;54.332;48.386;2023-06-14T02:58:29;99253.84;;;15.31;45.47
38530;BME280;24301;54.332;48.386;2023-06-14T03:00:55;99259.06;;;15.34;45.29
38530;BME280;24301;54.332;48.386;2023-06-14T03:03:21;99266.34;;;15.26;45.97
38530;BME280;24301;54.332;48.386;2023-06-14T03:05:52;99265.69;;;15.17;45.94
38530;BME280;24301;54.332;48.386;2023-06-14T03:08:23;99262.97;;;15.20;45.56
38530;BME280;24301;54.332;48.386;2023-06-14T03:10:53;99246.97;;;15.25;44.79
38530;BME280;24301;54.332;48.386;2023-06-14T03:13:22;99253.91;;;15.28;44.93
38530;BME280;24301;54.332;48.386;2023-06-14T03:15:50;99262.72;;;15.30;43.96
38530;BME280;24301;54.332;48.386;2023-06-14T03:18:18;99264.44;;;15.31;43.96
38530;BME280;24301;54.332;48.386;2023-06-14T03:20:45;99266.00;;;15.38;44.40
38530;BME280;24301;54.332;48.386;2023-06-14T03:23:12;99272.13;;;15.38;43.83
38530;BME280;24301;54.332;48.386;2023-06-14T03:25:39;99277.31;;;15.43;44.20
38530;BME280;24301;54.332;48.386;2023-06-14T03:28:09;99276.88;;;15.57;44.17
38530;BME280;24301;54.332;48.386;2023-06-14T03:30:35;99271.13;;;15.73;43.38
38530;BME280;24301;54.332;48.386;2023-06-14T03:33:01;99277.97;;;15.80;43.04
38530;BME280;24301;54.332;48.386;2023-06-14T03:35:28;99279.84;;;15.76;42.59
38530;BME280;24301;54.332;48.386;2023-06-14T03:37:54;99274.69;;;15.72;42.32
38530;BME280;24301;54.332;48.386;2023-06-14T03:40:20;99271.72;;;15.83;42.96
38530;BME280;24301;54.332;48.386;2023-06-14T03:42:50;99273.88;;;15.98;42.51
38530;BME280;24301;54.332;48.386;2023-06-14T03:45:16;99277.13;;;16.08;42.76
38530;BME280;24301;54.332;48.386;2023-06-14T03:47:42;99287.69;;;16.09;42.99
38530;BME280;24301;54.332;48.386;2023-06-14T03:50:08;99291.53;;;16.26;43.01
38530;BME280;24301;54.332;48.386;2023-06-14T03:52:34;99293.72;;;16.40;43.02
38530;BME280;24301;54.332;48.386;2023-06-14T03:54:59;99284.00;;;16.41;42.86
38530;BME280;24301;54.332;48.386;2023-06-14T03:57:26;99287.47;;;16.43;42.75
38530;BME280;24301;54.332;48.386;2023-06-14T03:59:54;99303.84;;;16.56;42.75
38530;BME280;24301;54.332;48.386;2023-06-14T04:02:19;99295.53;;;16.40;43.12
38530;BME280;24301;54.332;48.386;2023-06-14T04:04:45;99307.09;;;16.10;43.04
38530;BME280;24301;54.332;48.386;2023-06-14T04:07:12;99289.09;;;15.93;44.11
38530;BME280;24301;54.332;48.386;2023-06-14T04:09:38;99288.69;;;16.05;43.99
38530;BME280;24301;54.332;48.386;2023-06-14T04:12:04;99294.16;;;16.28;43.81
38530;BME280;24301;54.332;48.386;2023-06-14T04:14:31;99295.00;;;16.28;45.00
38530;BME280;24301;54.332;48.386;2023-06-14T04:16:59;99291.44;;;16.29;44.93
38530;BME280;24301;54.332;48.386;2023-06-14T04:19:25;99294.94;;;16.31;45.31
38530;BME280;24301;54.332;48.386;2023-06-14T04:21:52;99297.75;;;16.52;44.80
38530;BME280;24301;54.332;48.386;2023-06-14T04:24:18;99294.81;;;16.61;44.97
38530;BME280;24301;54.332;48.386;2023-06-14T04:26:48;99285.22;;;16.83;44.80
38530;BME280;24301;54.332;48.386;2023-06-14T04:29:16;99270.72;;;16.93;44.51
38530;BME280;24301;54.332;48.386;2023-06-14T04:31:50;99274.44;;;17.36;43.81
38530;BME280;24301;54.332;48.386;2023-06-14T04:34:17;99277.97;;;17.61;43.62
38530;BME280;24301;54.332;48.386;2023-06-14T04:36:48;99276.44;;;17.77;43.03
38530;BME280;24301;54.332;48.386;2023-06-14T04:39:19;99265.63;;;17.82;42.97
38530;BME280;24301;54.332;48.386;2023-06-14T04:41:49;99256.09;;;17.76;43.21
38530;BME280;24301;54.332;48.386;2023-06-14T04:44:18;99262.53;;;17.93;43.30
38530;BME280;24301;54.332;48.386;2023-06-14T04:46:46;99257.81;;;17.77;43.35
38530;BME280;24301;54.332;48.386;2023-06-14T04:49:21;99258.94;;;17.94;42.59
38530;BME280;24301;54.332;48.386;2023-06-14T04:51:48;99252.47;;;18.86;41.58
38530;BME280;24301;54.332;48.386;2023-06-14T04:54:23;99249.44;;;18.74;41.27
38530;BME280;24301;54.332;48.386;2023-06-14T04:56:51;99256.06;;;18.43;42.24
38530;BME280;24301;54.332;48.386;2023-06-14T04:59:21;99245.63;;;19.01;41.85
38530;BME280;24301;54.332;48.386;2023-06-14T05:01:48;99242.47;;;19.31;39.97
38530;BME280;24301;54.332;48.386;2023-06-14T05:04:19;99242.03;;;19.78;40.04
38530;BME280;24301;54.332;48.386;2023-06-14T05:06:46;99239.41;;;20.50;39.50
38530;BME280;24301;54.332;48.386;2023-06-14T05:09:15;99224.31;;;21.18;37.22
38530;BME280;24301;54.332;48.386;2023-06-14T05:11:43;99225.09;;;21.36;37.03
38530;BME280;24301;54.332;48.386;2023-06-14T05:14:12;99233.66;;;21.43;37.37
38530;BME280;24301;54.332;48.386;2023-06-14T05:16:38;99230.94;;;22.07;36.64
38530;BME280;24301;54.332;48.386;2023-06-14T05:19:04;99220.19;;;22.99;34.32
38530;BME280;24301;54.332;48.386;2023-06-14T05:21:30;99228.69;;;23.20;34.23
38530;BME280;24301;54.332;48.386;2023-06-14T05:23:57;99247.59;;;23.61;34.05
38530;BME280;24301;54.332;48.386;2023-06-14T05:26:22;99242.75;;;24.35;31.59
38530;BME280;24301;54.332;48.386;2023-06-14T05:28:54;99240.34;;;25.23;31.36
38530;BME280;24301;54.332;48.386;2023-06-14T05:31:24;99249.97;;;25.89;29.40
38530;BME280;24301;54.332;48.386;2023-06-14T05:33:51;99250.94;;;24.06;32.13
38530;BME280;24301;54.332;48.386;2023-06-14T05:36:17;99244.06;;;23.17;33.86
38530;BME280;24301;54.332;48.386;2023-06-14T05:38:43;99244.53;;;22.65;34.90
38530;BME280;24301;54.332;48.386;2023-06-14T05:41:08;99241.75;;;22.52;34.75
38530;BME280;24301;54.332;48.386;2023-06-14T05:43:34;99253.63;;;22.16;35.85
38530;BME280;24301;54.332;48.386;2023-06-14T05:46:00;99252.16;;;22.27;35.52
38530;BME280;24301;54.332;48.386;2023-06-14T05:48:25;99276.72;;;21.87;36.00
38530;BME280;24301;54.332;48.386;2023-06-14T05:50:51;99252.53;;;22.04;36.00
38530;BME280;24301;54.332;48.386;2023-06-14T05:53:17;99259.66;;;22.20;35.71
38530;BME280;24301;54.332;48.386;2023-06-14T05:55:42;99251.22;;;22.42;36.25
38530;BME280;24301;54.332;48.386;2023-06-14T05:58:08;99247.03;;;22.83;34.59
38530;BME280;24301;54.332;48.386;2023-06-14T06:00:34;99257.28;;;22.46;34.58
38530;BME280;24301;54.332;48.386;2023-06-14T06:02:59;99245.31;;;22.67;35.36
38530;BME280;24301;54.332;48.386;2023-06-14T06:05:26;99242.84;;;22.93;34.83
38530;BME280;24301;54.332;48.386;2023-06-14T06:07:51;99247.03;;;23.56;34.51
38530;BME280;24301;54.332;48.386;2023-06-14T06:10:17;99235.19;;;24.68;32.53
38530;BME280;24301;54.332;48.386;2023-06-14T06:12:43;99232.66;;;24.79;30.90
38530;BME280;24301;54.332;48.386;2023-06-14T06:15:08;99237.63;;;24.45;32.11
38530;BME280;24301;54.332;48.386;2023-06-14T06:17:37;99219.00;;;24.95;32.03
38530;BME280;24301;54.332;48.386;2023-06-14T06:20:03;99215.78;;;24.90;31.11
38530;BME280;24301;54.332;48.386;2023-06-14T06:22:30;99236.50;;;24.22;32.93
38530;BME280;24301;54.332;48.386;2023-06-14T06:24:56;99219.69;;;23.78;33.93
38530;BME280;24301;54.332;48.386;2023-06-14T06:27:21;99231.63;;;22.87;34.55
38530;BME280;24301;54.332;48.386;2023-06-14T06:29:47;99232.22;;;21.86;36.33
38530;BME280;24301;54.332;48.386;2023-06-14T06:32:14;99229.34;;;21.89;36.78
38530;BME280;24301;54.332;48.386;2023-06-14T06:34:40;99198.13;;;22.50;35.98
38530;BME280;24301;54.332;48.386;2023-06-14T06:37:05;99199.59;;;23.00;36.09
38530;BME280;24301;54.332;48.386;2023-06-14T06:39:31;99191.13;;;23.49;33.96
38530;BME280;24301;54.332;48.386;2023-06-14T06:41:57;99212.78;;;23.46;34.48
38530;BME280;24301;54.332;48.386;2023-06-14T06:44:32;99186.03;;;22.88;35.14
38530;BME280;24301;54.332;48.386;2023-06-14T06:46:57;99191.34;;;22.59;36.71
38530;BME280;24301;54.332;48.386;2023-06-14T06:49:23;99186.75;;;24.03;34.58
38530;BME280;24301;54.332;48.386;2023-06-14T06:52:04;99190.63;;;24.78;32.92
38530;BME280;24301;54.332;48.386;2023-06-14T06:54:30;99170.81;;;25.05;32.76
38530;BME280;24301;54.332;48.386;2023-06-14T06:56:56;99207.25;;;24.45;33.58
38530;BME280;24301;54.332;48.386;2023-06-14T06:59:22;99200.72;;;24.21;34.16
38530;BME280;24301;54.332;48.386;2023-06-14T07:04:32;99199.06;;;24.59;34.00
38530;BME280;24301;54.332;48.386;2023-06-14T07:06:57;99174.84;;;24.20;34.08
38530;BME280;24301;54.332;48.386;2023-06-14T07:09:23;99208.94;;;23.50;36.06
38530;BME280;24301;54.332;48.386;2023-06-14T07:11:49;99223.84;;;23.27;36.36
38530;BME280;24301;54.332;48.386;2023-06-14T07:14:15;99191.38;;;23.87;34.93
38530;BME280;24301;54.332;48.386;2023-06-14T07:16:41;99219.41;;;23.95;35.01
38530;BME280;24301;54.332;48.386;2023-06-14T07:19:06;99189.69;;;24.26;34.50
38530;BME280;24301;54.332;48.386;2023-06-14T07:21:32;99179.88;;;24.91;33.30
38530;BME280;24301;54.332;48.386;2023-06-14T07:23:58;99190.50;;;25.43;33.06
38530;BME280;24301;54.332;48.386;2023-06-14T07:26:23;99165.44;;;25.43;32.28
38530;BME280;24301;54.332;48.386;2023-06-14T07:28:50;99198.72;;;24.38;34.19
38530;BME280;24301;54.332;48.386;2023-06-14T07:31:18;99182.31;;;23.47;35.32
38530;BME280;24301;54.332;48.386;2023-06-14T07:33:44;99158.47;;;22.27;37.51
38530;BME280;24301;54.332;48.386;2023-06-14T07:36:10;99194.63;;;21.07;39.80
38530;BME280;24301;54.332;48.386;2023-06-14T07:38:36;99173.78;;;20.98;40.35
38530;BME280;24301;54.332;48.386;2023-06-14T07:41:02;99172.13;;;20.61;41.24
38530;BME280;24301;54.332;48.386;2023-06-14T07:43:27;99165.34;;;20.54;40.98
38530;BME280;24301;54.332;48.386;2023-06-14T07:45:53;99162.31;;;20.78;40.44
38530;BME280;24301;54.332;48.386;2023-06-14T07:48:19;99192.28;;;20.85;40.80
38530;BME280;24301;54.332;48.386;2023-06-14T07:50:44;99188.75;;;20.84;40.89
38530;BME280;24301;54.332;48.386;2023-06-14T07:53:10;99176.31;;;20.83;40.92
38530;BME280;24301;54.332;48.386;2023-06-14T07:55:36;99196.53;;;20.53;40.31
38530;BME280;24301;54.332;48.386;2023-06-14T07:58:05;99196.47;;;20.37;40.04
38530;BME280;24301;54.332;48.386;2023-06-14T08:00:31;99206.22;;;20.38;39.28
38530;BME280;24301;54.332;48.386;2023-06-14T08:02:57;99176.69;;;20.42;40.80
38530;BME280;24301;54.332;48.386;2023-06-14T08:05:27;99189.44;;;20.70;40.16
38530;BME280;24301;54.332;48.386;2023-06-14T08:07:53;99209.78;;;20.90;40.05
38530;BME280;24301;54.332;48.386;2023-06-14T08:10:19;99190.91;;;20.76;38.83
38530;BME280;24301;54.332;48.386;2023-06-14T08:12:45;99206.88;;;20.60;39.50
38530;BME280;24301;54.332;48.386;2023-06-14T08:15:11;99217.03;;;20.18;39.88
38530;BME280;24301;54.332;48.386;2023-06-14T08:17:36;99221.72;;;20.30;39.78
38530;BME280;24301;54.332;48.386;2023-06-14T08:20:02;99222.06;;;20.42;40.20
38530;BME280;24301;54.332;48.386;2023-06-14T08:22:30;99215.59;;;20.81;39.36
38530;BME280;24301;54.332;48.386;2023-06-14T08:25:01;99219.78;;;21.03;39.60
38530;BME280;24301;54.332;48.386;2023-06-14T08:27:29;99218.72;;;21.39;39.45
38530;BME280;24301;54.332;48.386;2023-06-14T08:29:55;99216.91;;;21.72;37.81
38530;BME280;24301;54.332;48.386;2023-06-14T08:32:21;99215.13;;;21.72;37.70
38530;BME280;24301;54.332;48.386;2023-06-14T08:34:46;99216.41;;;21.49;38.24
38530;BME280;24301;54.332;48.386;2023-06-14T08:37:12;99220.84;;;21.16;38.29
38530;BME280;24301;54.332;48.386;2023-06-14T08:39:38;99214.56;;;21.17;38.64
38530;BME280;24301;54.332;48.386;2023-06-14T08:42:03;99213.81;;;21.47;39.07
38530;BME280;24301;54.332;48.386;2023-06-14T08:44:29;99207.28;;;21.69;38.23
38530;BME280;24301;54.332;48.386;2023-06-14T08:46:56;99198.00;;;21.59;38.13
38530;BME280;24301;54.332;48.386;2023-06-14T08:49:22;99210.97;;;21.50;38.15
38530;BME280;24301;54.332;48.386;2023-06-14T08:51:49;99212.09;;;21.78;38.48
38530;BME280;24301;54.332;48.386;2023-06-14T08:54:19;99209.13;;;21.99;37.83
38530;BME280;24301;54.332;48.386;2023-06-14T08:56:46;99200.41;;;22.12;37.25
38530;BME280;24301;54.332;48.386;2023-06-14T08:59:13;99196.63;;;22.00;37.13
38530;BME280;24301;54.332;48.386;2023-06-14T09:01:40;99202.94;;;21.99;37.30
38530;BME280;24301;54.332;48.386;2023-06-14T09:04:06;99197.03;;;22.08;37.56
38530;BME280;24301;54.332;48.386;2023-06-14T09:06:31;99185.63;;;22.04;37.05
38530;BME280;24301;54.332;48.386;2023-06-14T09:08:58;99193.03;;;21.68;37.53
38530;BME280;24301;54.332;48.386;2023-06-14T09:11:24;99195.16;;;21.30;38.78
38530;BME280;24301;54.332;48.386;2023-06-14T09:13:51;99193.94;;;21.03;39.36
38530;BME280;24301;54.332;48.386;2023-06-14T09:16:16;99190.63;;;20.64;40.59
38530;BME280;24301;54.332;48.386;2023-06-14T09:18:43;99195.19;;;20.62;40.46
38530;BME280;24301;54.332;48.386;2023-06-14T09:21:10;99195.25;;;20.78;40.38
38530;BME280;24301;54.332;48.386;2023-06-14T09:23:36;99187.47;;;20.91;40.35
38530;BME280;24301;54.332;48.386;2023-06-14T09:26:10;99182.72;;;20.96;39.90
38530;BME280;24301;54.332;48.386;2023-06-14T09:28:36;99175.22;;;20.70;39.74
38530;BME280;24301;54.332;48.386;2023-06-14T09:31:06;99180.25;;;20.76;40.25
38530;BME280;24301;54.332;48.386;2023-06-14T09:33:33;99174.47;;;20.85;40.19
38530;BME280;24301;54.332;48.386;2023-06-14T09:35:59;99168.19;;;21.02;39.73
38530;BME280;24301;54.332;48.386;2023-06-14T09:38:25;99172.06;;;21.13;39.60
38530;BME280;24301;54.332;48.386;2023-06-14T09:40:51;99172.06;;;21.29;39.00
38530;BME280;24301;54.332;48.386;2023-06-14T09:43:17;99162.44;;;21.42;38.36
38530;BME280;24301;54.332;48.386;2023-06-14T09:45:43;99158.63;;;21.14;39.31
38530;BME280;24301;54.332;48.386;2023-06-14T09:48:11;99156.38;;;21.22;38.46
38530;BME280;24301;54.332;48.386;2023-06-14T09:50:37;99147.44;;;21.23;38.31
38530;BME280;24301;54.332;48.386;2023-06-14T09:53:05;99157.75;;;21.14;38.79
38530;BME280;24301;54.332;48.386;2023-06-14T09:55:31;99142.06;;;21.23;38.29
38530;BME280;24301;54.332;48.386;2023-06-14T09:57:59;99139.34;;;21.25;38.76
38530;BME280;24301;54.332;48.386;2023-06-14T10:00:26;99142.19;;;21.22;38.53
38530;BME280;24301;54.332;48.386;2023-06-14T10:02:53;99125.53;;;21.01;38.42
38530;BME280;24301;54.332;48.386;2023-06-14T10:05:21;99140.06;;;20.95;38.59
38530;BME280;24301;54.332;48.386;2023-06-14T10:10:12;99120.72;;;21.07;38.55
38530;BME280;24301;54.332;48.386;2023-06-14T10:12:38;99120.00;;;21.04;38.88
38530;BME280;24301;54.332;48.386;2023-06-14T10:15:04;99121.41;;;21.11;38.94
38530;BME280;24301;54.332;48.386;2023-06-14T10:17:43;99120.78;;;21.06;38.23
38530;BME280;24301;54.332;48.386;2023-06-14T10:22:51;99113.88;;;21.02;38.77
38530;BME280;24301;54.332;48.386;2023-06-14T10:25:27;99118.47;;;21.16;38.84
38530;BME280;24301;54.332;48.386;2023-06-14T10:28:02;99111.91;;;21.37;38.11
38530;BME280;24301;54.332;48.386;2023-06-14T10:30:29;99106.81;;;21.33;38.17
38530;BME280;24301;54.332;48.386;2023-06-14T10:33:07;99097.44;;;21.25;38.19
38530;BME280;24301;54.332;48.386;2023-06-14T10:35:33;99100.88;;;21.28;38.63
38530;BME280;24301;54.332;48.386;2023-06-14T10:38:08;99103.47;;;21.29;38.93
38530;BME280;24301;54.332;48.386;2023-06-14T10:40:34;99117.44;;;21.18;39.19
38530;BME280;24301;54.332;48.386;2023-06-14T10:43:01;99104.06;;;21.18;39.50
38530;BME280;24301;54.332;48.386;2023-06-14T10:48:30;99095.53;;;21.12;38.83
38530;BME280;24301;54.332;48.386;2023-06-14T10:51:01;99109.50;;;21.01;38.80
38530;BME280;24301;54.332;48.386;2023-06-14T10:53:27;99103.97;;;21.04;38.95
38530;BME280;24301;54.332;48.386;2023-06-14T10:55:56;99094.59;;;20.96;39.29
38530;BME280;24301;54.332;48.386;2023-06-14T10:58:21;99099.69;;;20.85;39.65
38530;BME280;24301;54.332;48.386;2023-06-14T11:00:47;99102.06;;;20.90;39.69
38530;BME280;24301;54.332;48.386;2023-06-14T11:10:42;99098.25;;;20.78;40.20
38530;BME280;24301;54.332;48.386;2023-06-14T11:13:08;99100.91;;;20.78;40.35
38530;BME280;24301;54.332;48.386;2023-06-14T11:15:35;99100.69;;;20.83;40.05
38530;BME280;24301;54.332;48.386;2023-06-14T11:18:05;99082.81;;;20.67;40.59
38530;BME280;24301;54.332;48.386;2023-06-14T11:20:32;99085.94;;;20.59;40.97
38530;BME280;24301;54.332;48.386;2023-06-14T11:22:58;99089.56;;;20.41;41.44
38530;BME280;24301;54.332;48.386;2023-06-14T11:25:24;99098.22;;;20.28;42.52
38530;BME280;24301;54.332;48.386;2023-06-14T11:27:50;99084.66;;;20.15;42.56
38530;BME280;24301;54.332;48.386;2023-06-14T11:30:16;99078.16;;;20.03;42.58
38530;BME280;24301;54.332;48.386;2023-06-14T11:32:42;99087.13;;;20.02;43.13
38530;BME280;24301;54.332;48.386;2023-06-14T11:35:08;99074.16;;;20.12;42.82
38530;BME280;24301;54.332;48.386;2023-06-14T11:37:35;99075.72;;;20.16;42.48
38530;BME280;24301;54.332;48.386;2023-06-14T11:40:02;99090.31;;;20.09;42.38
38530;BME280;24301;54.332;48.386;2023-06-14T11:42:31;99069.16;;;20.06;42.43
38530;BME280;24301;54.332;48.386;2023-06-14T11:44:57;99057.59;;;20.05;42.57
38530;BME280;24301;54.332;48.386;2023-06-14T11:47:23;99012.78;;;19.96;42.88
38530;BME280;24301;54.332;48.386;2023-06-14T11:49:48;99020.06;;;19.92;43.03
38530;BME280;24301;54.332;48.386;2023-06-14T11:52:14;99018.88;;;19.98;42.95
38530;BME280;24301;54.332;48.386;2023-06-14T11:54:40;99022.16;;;20.03;43.09
38530;BME280;24301;54.332;48.386;2023-06-14T11:57:09;99024.81;;;20.03;43.11
38530;BME280;24301;54.332;48.386;2023-06-14T11:59:39;99006.00;;;20.06;43.52
38530;BME280;24301;54.332;48.386;2023-06-14T12:02:05;99007.09;;;20.02;44.59
38530;BME280;24301;54.332;48.386;2023-06-14T12:04:33;98997.38;;;20.01;44.82
38530;BME280;24301;54.332;48.386;2023-06-14T12:07:11;98998.50;;;19.97;45.72
38530;BME280;24301;54.332;48.386;2023-06-14T12:12:25;99006.41;;;19.81;46.20
38530;BME280;24301;54.332;48.386;2023-06-14T12:14:51;99002.88;;;19.80;46.11
38530;BME280;24301;54.332;48.386;2023-06-14T12:17:17;99007.19;;;19.83;46.34
38530;BME280;24301;54.332;48.386;2023-06-14T12:19:43;99007.91;;;19.87;45.77
38530;BME280;24301;54.332;48.386;2023-06-14T12:22:11;98983.44;;;19.96;45.67
38530;BME280;24301;54.332;48.386;2023-06-14T12:24:37;98967.59;;;19.93;45.22
38530;BME280;24301;54.332;48.386;2023-06-14T12:27:05;98956.59;;;19.81;45.39
38530;BME280;24301;54.332;48.386;2023-06-14T12:29:31;98961.66;;;19.70;47.74
38530;BME280;24301;54.332;48.386;2023-06-14T12:31:57;98969.03;;;19.65;47.41
38530;BME280;24301;54.332;48.386;2023-06-14T12:34:23;98982.97;;;19.70;47.23
38530;BME280;24301;54.332;48.386;2023-06-14T12:36:55;99006.81;;;19.73;47.33
38530;BME280;24301;54.332;48.386;2023-06-14T12:39:21;99017.78;;;19.85;47.70
38530;BME280;24301;54.332;48.386;2023-06-14T12:41:47;99029.78;;;19.93;48.06
38530;BME280;24301;54.332;48.386;2023-06-14T12:44:14;99024.22;;;19.98;47.40
38530;BME280;24301;54.332;48.386;2023-06-14T12:46:41;99021.31;;;20.03;47.52
38530;BME280;24301;54.332;48.386;2023-06-14T12:49:08;99030.16;;;20.03;47.68
38530;BME280;24301;54.332;48.386;2023-06-14T12:51:34;99036.28;;;20.05;47.45
38530;BME280;24301;54.332;48.386;2023-06-14T12:54:00;99020.66;;;20.15;47.03
38530;BME280;24301;54.332;48.386;2023-06-14T12:56:25;99026.34;;;20.25;46.66
38530;BME280;24301;54.332;48.386;2023-06-14T12:58:51;99026.47;;;20.39;46.24
38530;BME280;24301;54.332;48.386;2023-06-14T13:01:17;99016.94;;;20.51;45.88
38530;BME280;24301;54.332;48.386;2023-06-14T13:03:43;99009.44;;;20.58;45.88
38530;BME280;24301;54.332;48.386;2023-06-14T13:06:08;99005.03;;;20.57;46.17
38530;BME280;24301;54.332;48.386;2023-06-14T13:08:34;99001.88;;;20.50;46.58
38530;BME280;24301;54.332;48.386;2023-06-14T13:10:59;99006.84;;;20.41;46.79
38530;BME280;24301;54.332;48.386;2023-06-14T13:13:25;99003.31;;;20.40;46.84
38530;BME280;24301;54.332;48.386;2023-06-14T13:15:51;98994.13;;;20.46;46.73
38530;BME280;24301;54.332;48.386;2023-06-14T13:18:16;98989.19;;;20.54;46.72
38530;BME280;24301;54.332;48.386;2023-06-14T13:20:42;99004.09;;;20.58;46.74
38530;BME280;24301;54.332;48.386;2023-06-14T13:23:08;99023.25;;;20.66;46.67